createdAt,value
2023-01-05T00:03:09.627Z,7.63366
2023-01-05T00:08:10.571Z,7.46633
2023-01-05T00:13:11.481Z,7.49055
2023-01-05T00:18:12.501Z,7.54741
2023-01-05T00:23:13.479Z,7.56711
2023-01-05T00:28:14.470Z,7.4715
2023-01-05T00:33:15.492Z,7.5122
2023-01-05T00:38:16.487Z,7.61331
2023-01-05T00:43:17.407Z,7.67404
2023-01-05T00:48:18.465Z,7.65756
2023-01-05T00:53:19.359Z,7.61298
2023-01-05T00:58:20.292Z,7.64141
2023-01-05T01:03:21.299Z,7.66596
2023-01-05T01:08:22.260Z,7.51833
2023-01-05T01:13:23.192Z,7.67565
2023-01-05T01:18:24.164Z,7.74478
2023-01-05T01:23:25.078Z,7.82101
2023-01-05T01:28:26.086Z,7.83426
2023-01-05T01:33:27.004Z,7.80809
2023-01-05T01:38:28.003Z,7.94926
2023-01-05T01:43:29.366Z,7.85558
2023-01-05T01:48:30.350Z,7.84686
2023-01-05T01:53:31.458Z,7.81585
2023-01-05T01:58:32.456Z,7.85009
2023-01-05T02:03:33.412Z,7.80422
2023-01-05T02:08:34.469Z,7.7984
2023-01-05T02:13:35.435Z,7.84718
2023-01-05T02:18:36.388Z,7.87108
2023-01-05T02:23:37.346Z,7.84718
2023-01-05T02:28:38.391Z,7.88142
2023-01-05T02:33:39.345Z,7.86172
2023-01-05T02:38:40.292Z,7.82974
2023-01-05T02:43:41.228Z,7.91308
2023-01-05T02:48:42.253Z,7.85655
2023-01-05T02:53:43.273Z,7.94441
2023-01-05T02:58:44.249Z,8.09268
2023-01-05T03:03:45.286Z,8.02356
2023-01-05T03:08:46.250Z,7.9667
2023-01-05T03:13:47.180Z,7.91469
2023-01-05T03:18:48.216Z,7.86753
2023-01-05T03:23:49.153Z,7.80648
2023-01-05T03:28:50.154Z,7.86915
2023-01-05T03:33:51.089Z,7.85493
2023-01-05T03:38:52.041Z,7.78031
2023-01-05T03:43:52.996Z,7.87819
2023-01-05T03:48:53.952Z,7.81552
2023-01-05T03:53:54.900Z,7.83652
2023-01-05T03:58:55.816Z,7.89434
2023-01-05T04:03:56.788Z,7.9541
2023-01-05T04:08:57.772Z,7.96476
2023-01-05T04:13:58.786Z,8.08267
2023-01-05T04:18:59.733Z,8.07976
2023-01-05T04:24:00.649Z,8.08816
2023-01-05T04:29:01.734Z,7.93311
2023-01-05T04:34:02.698Z,7.86107
2023-01-05T04:39:03.672Z,7.84557
2023-01-05T04:44:04.640Z,7.7787
2023-01-05T04:49:05.586Z,7.8853
2023-01-05T04:54:06.548Z,7.91308
2023-01-05T04:59:07.576Z,7.81811
2023-01-05T05:04:08.507Z,7.85041
2023-01-05T05:09:09.469Z,7.76125
2023-01-05T05:14:10.377Z,7.71861
2023-01-05T05:19:11.300Z,7.55516
2023-01-05T05:24:12.234Z,7.49185
2023-01-05T05:29:13.233Z,7.56517
2023-01-05T05:34:14.188Z,7.52189
2023-01-05T05:39:15.133Z,7.59005
2023-01-05T05:44:16.093Z,7.61008
2023-01-05T05:49:17.019Z,7.57906
2023-01-05T05:54:17.954Z,7.45114
2023-01-05T05:59:18.889Z,7.4337
2023-01-05T06:04:19.836Z,7.52738
2023-01-05T06:09:20.905Z,7.25571
2023-01-05T06:14:21.974Z,7.32129
2023-01-05T06:19:22.916Z,7.36813
2023-01-05T06:24:23.842Z,7.32452
2023-01-05T06:29:24.825Z,7.46923
2023-01-05T06:34:25.759Z,7.71474
2023-01-05T06:39:26.712Z,7.76578
2023-01-05T06:44:27.643Z,7.56679
2023-01-05T06:49:28.970Z,7.38589
2023-01-05T06:54:30.210Z,7.29221
2023-01-05T06:59:31.199Z,7.25959
2023-01-05T07:04:32.283Z,7.30837
2023-01-05T07:09:33.240Z,7.31935
2023-01-05T07:14:34.172Z,7.28737
2023-01-05T07:19:35.108Z,7.25636
2023-01-05T07:24:36.055Z,7.28737
2023-01-05T07:29:37.049Z,7.18852
2023-01-05T07:34:37.995Z,7.26314
2023-01-05T07:39:38.975Z,7.17075
2023-01-05T07:44:40.038Z,7.23665
2023-01-05T07:49:40.984Z,7.33453
2023-01-05T07:54:42.000Z,7.26249
2023-01-05T07:59:42.991Z,7.23698
2023-01-05T08:04:44.039Z,7.31095
2023-01-05T08:09:45.034Z,7.22825
2023-01-05T08:14:46.004Z,7.13845
2023-01-05T08:19:46.997Z,7.25119
2023-01-05T08:24:47.971Z,7.45502
2023-01-05T08:29:48.957Z,7.58682
2023-01-05T08:34:55.221Z,7.50154
2023-01-05T08:39:56.592Z,7.37459
2023-01-05T08:44:57.552Z,7.43435
2023-01-05T08:49:58.666Z,7.5978
2023-01-05T08:54:59.687Z,7.66047
2023-01-05T09:00:00.639Z,7.71861
2023-01-05T09:05:01.584Z,7.68728
2023-01-05T09:10:02.533Z,7.59586
2023-01-05T09:15:03.480Z,7.54805
2023-01-05T09:20:04.433Z,7.45664
2023-01-05T09:25:05.385Z,7.46116
2023-01-05T09:30:06.356Z,7.55484
2023-01-05T09:35:07.308Z,7.40107
2023-01-05T09:40:08.276Z,7.63204
2023-01-05T09:45:09.237Z,7.67081
2023-01-05T09:50:10.227Z,7.86398
2023-01-05T09:55:11.170Z,8.25711
2023-01-05T10:00:12.162Z,8.38535
2023-01-05T10:05:13.167Z,8.59952
2023-01-05T10:10:14.206Z,8.82856
2023-01-05T10:15:15.155Z,8.96972
2023-01-05T10:20:16.145Z,8.80497
2023-01-05T10:25:17.501Z,8.56851
2023-01-05T10:30:18.667Z,8.39827
2023-01-05T10:35:34.265Z,8.26422
2023-01-05T10:40:51.678Z,8.31299
2023-01-05T10:46:28.757Z,7.97026
2023-01-05T10:51:31.962Z,8.1069
2023-01-05T10:56:32.941Z,8.15761
2023-01-05T11:01:34.021Z,8.12111
2023-01-05T11:06:35.030Z,8.23611
2023-01-05T11:11:35.945Z,8.13113
2023-01-05T11:16:36.883Z,8.22093
2023-01-05T11:21:37.943Z,8.17441
2023-01-05T11:26:39.004Z,8.06878
2023-01-05T11:31:39.973Z,8.01968
2023-01-05T11:36:40.942Z,8.01516
2023-01-05T11:41:41.896Z,7.7942
2023-01-05T11:46:42.958Z,7.80002
2023-01-05T11:51:43.965Z,7.89079
2023-01-05T11:56:44.973Z,8.13403
2023-01-05T12:01:45.996Z,7.96283
2023-01-05T12:06:47.264Z,7.95184
2023-01-05T12:11:48.214Z,7.81003
2023-01-05T12:16:49.240Z,7.74672
2023-01-05T12:21:50.266Z,7.85041
2023-01-05T12:26:51.292Z,7.72992
2023-01-05T12:37:23.351Z,8.59532
2023-01-05T12:42:24.604Z,8.31848
2023-01-05T12:47:25.531Z,8.177
2023-01-05T12:52:26.473Z,8.03519
2023-01-05T12:57:27.419Z,8.04972
2023-01-05T13:02:28.472Z,9.45395
2023-01-05T13:07:29.837Z,9.56992
2023-01-05T13:12:31.008Z,9.05177
2023-01-05T13:17:31.932Z,8.71226
2023-01-05T13:22:32.856Z,8.43898
2023-01-05T13:27:33.770Z,8.30298
2023-01-05T13:32:34.843Z,8.14372
2023-01-05T13:37:35.928Z,8.20155
2023-01-05T13:42:36.941Z,8.05941
2023-01-05T13:47:45.277Z,7.80712
2023-01-05T13:52:51.724Z,7.82651
2023-01-05T13:57:52.648Z,7.84912
2023-01-05T14:02:53.616Z,7.87658
2023-01-05T14:07:54.595Z,7.811
2023-01-05T14:12:55.550Z,7.81068
2023-01-05T14:17:56.498Z,7.832
2023-01-05T14:22:57.436Z,7.76481
2023-01-05T14:27:58.395Z,7.78064
2023-01-05T14:32:59.388Z,7.68825
2023-01-05T14:38:00.406Z,7.71086
2023-01-05T14:43:01.389Z,7.72992
2023-01-05T14:48:02.375Z,7.59651
2023-01-05T14:53:03.316Z,7.62784
2023-01-05T14:58:04.266Z,7.51575
2023-01-05T15:03:05.563Z,7.38428
2023-01-05T15:08:06.603Z,7.24118
2023-01-05T15:13:07.560Z,7.0971
2023-01-05T15:18:08.472Z,7.09097
2023-01-05T15:23:09.449Z,6.92784
2023-01-05T15:28:10.479Z,6.76342
2023-01-05T15:33:11.531Z,6.76212
2023-01-05T15:38:12.472Z,6.84902
2023-01-05T15:43:13.421Z,6.89521
2023-01-05T15:48:14.381Z,6.84999
2023-01-05T15:53:15.366Z,6.77601
2023-01-05T15:58:16.306Z,6.7786
2023-01-05T16:03:17.367Z,6.81316
2023-01-05T16:08:18.368Z,6.67329
2023-01-05T16:13:19.341Z,6.73014
2023-01-05T16:18:20.316Z,6.64163
2023-01-05T16:23:21.280Z,6.68007
2023-01-05T16:28:22.242Z,6.76115
2023-01-05T16:33:23.203Z,6.73337
2023-01-05T16:38:24.148Z,6.68266
2023-01-05T16:43:25.096Z,6.61676
2023-01-05T16:48:31.264Z,6.53988
2023-01-05T16:53:32.253Z,6.34736
2023-01-05T16:58:33.183Z,6.45363
2023-01-05T17:03:34.098Z,6.38095
2023-01-05T17:08:35.028Z,6.40712
2023-01-05T17:13:41.079Z,6.39
2023-01-05T17:18:42.021Z,6.39807
2023-01-05T17:23:42.934Z,6.26402
2023-01-05T17:28:43.879Z,6.13061
2023-01-05T17:33:44.821Z,6.21815
2023-01-05T17:38:46.673Z,6.32474
2023-01-05T17:43:48.335Z,6.29761
2023-01-05T17:48:49.259Z,6.21362
2023-01-05T17:53:50.171Z,6.20103
2023-01-05T17:58:51.152Z,6.12835
2023-01-05T18:03:52.100Z,6.07925
2023-01-05T18:08:53.102Z,6.11898
2023-01-05T18:13:54.145Z,6.15839
2023-01-05T18:18:55.200Z,6.18681
2023-01-05T18:23:56.202Z,6.2834
2023-01-05T18:28:57.164Z,6.2175
2023-01-05T18:33:58.110Z,6.23074
2023-01-05T18:38:59.074Z,6.16711
2023-01-05T18:44:00.106Z,6.20587
2023-01-05T18:49:01.224Z,6.181
2023-01-05T18:54:02.198Z,6.21879
2023-01-05T18:59:03.174Z,6.22267
2023-01-05T19:04:04.118Z,6.21362
2023-01-05T19:09:05.091Z,6.27015
2023-01-05T19:14:06.063Z,6.16808
2023-01-05T19:19:07.003Z,6.06406
2023-01-05T19:24:08.000Z,6.09669
2023-01-05T19:29:10.620Z,5.99784
2023-01-05T19:34:11.643Z,5.94519
2023-01-05T19:39:12.666Z,5.97006
2023-01-05T19:44:13.638Z,5.99687
2023-01-05T19:49:14.642Z,5.90836
2023-01-05T19:54:15.607Z,5.84279
2023-01-05T19:59:16.632Z,5.8247
2023-01-05T20:04:17.603Z,5.6732
2023-01-05T20:09:18.593Z,5.61344
2023-01-05T20:14:19.537Z,5.62087
2023-01-05T20:19:20.525Z,5.65867
2023-01-05T20:24:21.460Z,5.65221
2023-01-05T20:29:22.423Z,5.66771
2023-01-05T20:34:23.438Z,5.47164
2023-01-05T20:39:24.394Z,5.523
2023-01-05T20:44:25.370Z,5.40477
2023-01-05T20:49:26.432Z,5.43933
2023-01-05T20:54:27.422Z,5.51783
2023-01-05T20:59:28.369Z,5.48423
2023-01-05T21:04:29.673Z,5.44838
2023-01-05T21:09:30.984Z,5.53818
2023-01-05T21:14:31.969Z,5.60795
2023-01-05T21:19:32.934Z,5.64833
2023-01-05T21:24:33.863Z,5.55691
2023-01-05T21:29:34.838Z,5.43578
2023-01-05T21:34:35.827Z,5.35987
2023-01-05T21:39:36.832Z,5.30431
2023-01-05T21:44:37.810Z,5.19384
2023-01-05T21:49:38.839Z,5.07109
2023-01-05T21:54:39.793Z,4.88503
2023-01-05T21:59:40.751Z,4.83787
2023-01-05T22:04:41.731Z,4.85208
2023-01-05T22:09:42.686Z,4.93736
2023-01-05T22:14:43.612Z,4.99292
2023-01-05T22:19:44.648Z,4.98323
2023-01-05T22:24:45.583Z,4.9913
2023-01-05T22:29:46.531Z,4.94059
2023-01-05T22:34:47.512Z,4.75001
2023-01-05T22:39:48.463Z,4.59076
2023-01-05T22:44:49.399Z,4.46575
2023-01-05T22:49:50.335Z,4.40922
2023-01-05T22:54:51.265Z,4.31037
2023-01-05T22:59:52.222Z,4.23673
2023-01-05T23:04:53.175Z,4.11236
2023-01-05T23:09:54.118Z,3.96701
2023-01-05T23:14:55.104Z,3.8659
2023-01-05T23:19:56.069Z,3.70892
2023-01-05T23:24:56.982Z,3.59166
2023-01-05T23:29:57.983Z,3.45696
2023-01-05T23:34:59.009Z,3.39527
2023-01-05T23:39:59.997Z,3.3607
2023-01-05T23:45:00.983Z,3.31645
2023-01-05T23:50:01.962Z,3.18789
2023-01-05T23:55:02.885Z,3.18951
